Aérodrome :
LOGIN :

S'inscrire | Disclaimer

   EN    FR    IT 

 










Légende :    VFR   VFR Marginal   IFR   IFR Intensif   IFR Très Intensif
Visi : 
Plafond : 
>= 8 km
>= 3000ft
5 à 8 km
1000 à 3000 ft
1500m à 5 km
500 à 1000 ft
800 à 1500m
200 à 500 ft
< 800m
< 200 ft
Symboles :   Orages  Brouillard  Fortes neiges  Fortes précipitations  Vent > 20 kt
SIGMETs :   Divers  Orages  Givrage  Turbulence  Onde Orograph.  Cendres Volcan.






- Altitude de l'aérodrome : 313 ft
- Code IATA : LEH


LFOH - Le Havre Octeville

DERNIER METAR :
  • 101030Z AUTO 32006KT 290V350 9999 ////// 27/17 Q1013

METARs EXPIRÉS :
  • 101000Z AUTO VRB03KT CAVOK 28/17 Q1013 TEMPO SCT100CB
  • 100930Z AUTO 22007KT 180V260 9999 ////// 27/16 Q1013
  • 100900Z AUTO 18007KT 150V210 CAVOK 27/16 Q1013 TEMPO SCT100CB
  • 100830Z AUTO 16008KT 130V210 CAVOK 26/16 Q1013 TEMPO SCT100CB
  • 100800Z AUTO 17008KT 140V200 CAVOK 25/16 Q1013 TEMPO SCT100CB

TAF TAF LFOH
Valide du 10 à 06h jusqu'au 11 à 06h UTC


100500Z 1006/1106 16005KT CAVOK
TEMPO 1006/1106 SCT100CB
PROB30
TEMPO 1012/1106 VRB25G35KT 3000 TSRA BKN070CB
ATIS : +33 2 35 54 64 93



MET'MAP, la Météo Aéronautique d'un coup d'oeil ! - Copyright ORBIFLY Décembre 2007 - Disclaimer

ORBIFLY MET'MAP TEAM :

Programmation & Développement : Alexandra Zaïnal
Sur une idée originale de : Baudouin d'Aumeries
Assistance à la programmation : Marc-Olivier Méhu
Soutien technique & logistique : Manuel Goepfert

Contact : metmap@orbifly.com




SOURCES & CREDITS :

   NOAA